createdAt,value
2023-04-10T00:01:13.086Z,5.91
2023-04-10T00:04:16.772Z,5.90
2023-04-10T00:07:21.278Z,5.93
2023-04-10T00:10:26.401Z,5.86
2023-04-10T00:13:29.701Z,5.86
2023-04-10T00:16:32.742Z,5.83
2023-04-10T00:19:38.057Z,5.76
2023-04-10T00:22:42.959Z,5.79
2023-04-10T00:25:46.062Z,5.69
2023-04-10T00:28:49.080Z,5.59
2023-04-10T00:31:52.182Z,5.64
2023-04-10T00:34:55.332Z,5.64
2023-04-10T00:37:59.798Z,5.60
2023-04-10T00:41:02.854Z,5.54
2023-04-10T00:44:06.068Z,5.53
2023-04-10T00:47:09.636Z,5.48
2023-04-10T00:50:12.924Z,5.42
2023-04-10T00:53:17.451Z,5.39
2023-04-10T00:56:21.715Z,5.34
2023-04-10T00:59:25.400Z,5.30
2023-04-10T01:02:28.478Z,5.29
2023-04-10T01:05:43.210Z,5.30
2023-04-10T01:08:57.830Z,5.26
2023-04-10T01:12:11.622Z,5.19
2023-04-10T01:15:18.712Z,5.17
2023-04-10T01:18:30.540Z,5.14
2023-04-10T01:21:37.222Z,5.10
2023-04-10T01:25:01.855Z,5.07
2023-04-10T01:28:22.433Z,5.03
2023-04-10T01:31:36.606Z,5.01
2023-04-10T01:34:45.059Z,4.94
2023-04-10T01:37:51.863Z,4.99
2023-04-10T01:40:56.239Z,4.94
2023-04-10T01:44:07.635Z,4.90
2023-04-10T01:47:17.055Z,4.93
2023-04-10T01:50:23.920Z,4.85
2023-04-10T01:53:27.024Z,4.82
2023-04-10T01:56:30.750Z,4.78
2023-04-10T01:59:34.453Z,4.74
2023-04-10T02:02:39.243Z,4.70
2023-04-10T02:05:56.376Z,4.72
2023-04-10T02:09:09.571Z,4.67
2023-04-10T02:12:20.120Z,4.66
2023-04-10T02:15:26.611Z,4.68
2023-04-10T02:18:35.144Z,4.64
2023-04-10T02:21:39.945Z,4.60
2023-04-10T02:24:44.071Z,4.58
2023-04-10T02:27:47.685Z,4.54
2023-04-10T02:30:50.839Z,4.46
2023-04-10T02:33:55.638Z,4.48
2023-04-10T02:36:58.925Z,4.40
2023-04-10T02:40:02.350Z,4.38
2023-04-10T02:43:14.268Z,4.37
2023-04-10T02:46:17.482Z,4.34
2023-04-10T02:51:59.644Z,4.25
2023-04-10T02:55:02.715Z,4.19
2023-04-10T02:58:13.839Z,4.17
2023-04-10T03:01:18.066Z,4.18
2023-04-10T03:04:23.211Z,4.25
2023-04-10T03:07:27.580Z,4.18
2023-04-10T03:10:30.581Z,4.11
2023-04-10T03:13:33.580Z,4.03
2023-04-10T03:16:36.952Z,3.99
2023-04-10T03:19:40.442Z,3.95
2023-04-10T03:22:44.845Z,3.94
2023-04-10T03:25:52.110Z,3.93
2023-04-10T03:28:55.217Z,3.89
2023-04-10T03:31:58.333Z,3.90
2023-04-10T03:35:02.333Z,3.86
2023-04-10T03:38:06.682Z,3.84
2023-04-10T03:41:09.842Z,3.88
2023-04-10T03:44:12.949Z,3.90
2023-04-10T03:47:16.712Z,3.86
2023-04-10T03:50:24.774Z,3.88
2023-04-10T03:53:36.170Z,3.85
2023-04-10T03:56:43.215Z,3.84
2023-04-10T03:59:47.192Z,3.75
2023-04-10T04:02:51.947Z,3.75
2023-04-10T04:06:25.505Z,3.73
2023-04-10T04:09:44.319Z,3.68
2023-04-10T04:13:15.300Z,3.69
2023-04-10T04:16:36.859Z,3.63
2023-04-10T04:20:01.761Z,3.54
2023-04-10T04:23:19.861Z,3.62
2023-04-10T04:26:44.040Z,3.68
2023-04-10T04:29:54.118Z,3.77
2023-04-10T04:33:19.607Z,3.90
2023-04-10T04:36:33.422Z,3.88
2023-04-10T04:39:49.840Z,3.93
2023-04-10T04:43:00.114Z,3.98
2023-04-10T04:46:28.775Z,3.99
2023-04-10T04:50:08.754Z,3.99
2023-04-10T04:53:39.801Z,3.98
2023-04-10T04:56:50.081Z,3.99
2023-04-10T05:00:10.206Z,4.00
2023-04-10T05:03:39.411Z,4.02
2023-04-10T05:07:01.152Z,4.06
2023-04-10T05:10:25.964Z,4.10
2023-04-10T05:13:48.478Z,4.11
2023-04-10T05:17:03.969Z,4.08
2023-04-10T05:20:19.511Z,4.17
2023-04-10T05:23:41.225Z,4.33
2023-04-10T05:27:02.616Z,4.46
2023-04-10T05:30:20.848Z,4.51
2023-04-10T05:33:45.780Z,4.61
2023-04-10T05:41:35.966Z,4.90
2023-04-10T05:45:06.956Z,4.99
2023-04-10T05:48:30.252Z,5.14
2023-04-10T05:51:53.576Z,5.27
2023-04-10T05:55:15.533Z,5.41
2023-04-10T05:58:18.506Z,5.55
2023-04-10T06:01:36.646Z,5.71
2023-04-10T06:04:40.511Z,5.90
2023-04-10T06:07:45.056Z,6.05
2023-04-10T06:10:48.131Z,6.12
2023-04-10T06:13:51.963Z,6.27
2023-04-10T06:16:57.818Z,6.41
2023-04-10T06:20:04.706Z,6.45
2023-04-10T06:23:08.988Z,6.63
2023-04-10T06:26:13.176Z,6.75
2023-04-10T06:29:16.558Z,6.86
2023-04-10T06:32:19.896Z,6.94
2023-04-10T06:35:23.203Z,7.03
2023-04-10T06:38:27.529Z,7.22
2023-04-10T06:41:30.695Z,7.34
2023-04-10T06:44:43.132Z,7.42
2023-04-10T06:47:46.102Z,7.55
2023-04-10T06:50:49.074Z,7.72
2023-04-10T06:53:53.326Z,7.88
2023-04-10T06:56:58.892Z,8.12
2023-04-10T07:00:02.134Z,8.30
2023-04-10T07:03:05.752Z,8.42
2023-04-10T07:06:11.190Z,8.53
2023-04-10T07:09:15.958Z,8.64
2023-04-10T07:12:18.930Z,8.77
2023-04-10T07:15:24.368Z,8.91
2023-04-10T07:18:27.340Z,9.00
2023-04-10T07:21:30.311Z,9.12
2023-04-10T07:24:34.923Z,10.06
2023-04-10T07:27:37.873Z,10.63
2023-04-10T07:30:40.795Z,10.12
2023-04-10T07:33:43.896Z,9.97
2023-04-10T07:36:47.150Z,10.02
2023-04-10T07:39:51.867Z,9.80
2023-04-10T07:42:54.864Z,9.87
2023-04-10T07:45:58.277Z,9.99
2023-04-10T07:49:01.395Z,10.08
2023-04-10T07:52:04.630Z,10.22
2023-04-10T07:55:11.429Z,10.35
2023-04-10T07:58:14.343Z,10.52
2023-04-10T08:01:17.309Z,10.72
2023-04-10T08:04:20.686Z,10.81
2023-04-10T08:07:23.704Z,10.69
2023-04-10T08:10:28.114Z,11.02
2023-04-10T08:13:31.406Z,11.17
2023-04-10T08:16:36.760Z,11.31
2023-04-10T08:19:39.774Z,11.44
2023-04-10T08:22:42.758Z,11.72
2023-04-10T08:25:47.180Z,12.04
2023-04-10T08:28:51.786Z,12.15
2023-04-10T08:31:55.606Z,12.29
2023-04-10T08:34:59.094Z,12.32
2023-04-10T08:38:12.832Z,12.45
2023-04-10T08:41:20.702Z,12.62
2023-04-10T08:44:28.131Z,12.55
2023-04-10T08:47:36.857Z,12.79
2023-04-10T08:50:43.829Z,12.96
2023-04-10T08:53:47.592Z,13.05
2023-04-10T08:56:55.243Z,13.24
2023-04-10T09:00:04.303Z,13.49
2023-04-10T09:03:14.910Z,13.23
2023-04-10T09:06:18.148Z,13.32
2023-04-10T09:09:21.282Z,13.37
2023-04-10T09:12:27.124Z,13.59
2023-04-10T09:15:30.224Z,13.83
2023-04-10T09:18:50.526Z,14.15
2023-04-10T09:21:53.472Z,14.13
2023-04-10T09:24:56.436Z,14.08
2023-04-10T09:28:06.281Z,14.41
2023-04-10T09:31:30.922Z,14.46
2023-04-10T09:34:33.955Z,14.44
2023-04-10T09:37:38.045Z,14.45
2023-04-10T09:40:42.157Z,14.69
2023-04-10T09:43:46.942Z,15.06
2023-04-10T09:46:50.570Z,15.15
2023-04-10T09:49:55.396Z,14.95
2023-04-10T09:52:59.156Z,15.00
2023-04-10T09:56:02.240Z,15.21
2023-04-10T09:59:11.471Z,15.68
2023-04-10T10:02:18.320Z,15.77
2023-04-10T10:05:22.957Z,15.58
2023-04-10T10:08:28.088Z,15.78
2023-04-10T10:11:35.434Z,16.13
2023-04-10T10:14:50.552Z,16.51
2023-04-10T10:18:09.321Z,16.63
2023-04-10T10:21:14.618Z,16.32
2023-04-10T10:24:19.810Z,16.88
2023-04-10T10:27:24.287Z,17.10
2023-04-10T10:30:30.588Z,16.64
2023-04-10T10:33:37.003Z,16.32
2023-04-10T10:36:41.537Z,16.60
2023-04-10T10:39:55.664Z,16.62
2023-04-10T10:43:09.243Z,16.72
2023-04-10T10:46:19.074Z,15.95
2023-04-10T10:49:22.522Z,16.18
2023-04-10T10:52:43.165Z,16.52
2023-04-10T10:55:46.296Z,16.63
2023-04-10T10:58:51.854Z,16.85
2023-04-10T11:02:18.393Z,17.44
2023-04-10T11:05:51.877Z,17.35
2023-04-10T11:08:55.186Z,17.30
2023-04-10T11:11:59.964Z,16.43
2023-04-10T11:15:04.906Z,16.86
2023-04-10T11:18:12.157Z,17.10
2023-04-10T11:21:17.576Z,17.46
2023-04-10T11:24:21.975Z,17.83
2023-04-10T11:27:48.430Z,17.68
2023-04-10T11:30:51.447Z,17.31
2023-04-10T11:34:05.984Z,17.30
2023-04-10T11:37:08.941Z,17.41
2023-04-10T11:40:13.760Z,16.73
2023-04-10T11:43:17.464Z,16.78
2023-04-10T11:46:31.034Z,17.75
2023-04-10T11:49:36.975Z,17.35
2023-04-10T11:52:39.990Z,17.41
2023-04-10T11:55:42.960Z,16.86
2023-04-10T11:58:46.298Z,17.06
2023-04-10T12:01:49.917Z,17.54
2023-04-10T12:05:00.074Z,17.59
2023-04-10T12:08:03.100Z,17.85
2023-04-10T12:11:07.304Z,17.93
2023-04-10T12:14:10.299Z,17.64
2023-04-10T12:17:13.935Z,17.68
2023-04-10T12:20:18.667Z,17.99
2023-04-10T12:23:21.810Z,17.80
2023-04-10T12:26:25.056Z,18.38
2023-04-10T12:29:28.599Z,18.54
2023-04-10T12:32:32.080Z,18.44
2023-04-10T12:35:43.518Z,18.38
2023-04-10T12:38:46.527Z,18.91
2023-04-10T12:41:49.984Z,17.68
2023-04-10T12:44:55.043Z,18.20
2023-04-10T12:47:58.204Z,18.05
2023-04-10T12:51:04.191Z,18.18
2023-04-10T12:54:07.277Z,17.50
2023-04-10T12:57:10.338Z,17.51
2023-04-10T13:00:17.004Z,17.66
2023-04-10T13:03:20.279Z,18.41
2023-04-10T13:06:24.842Z,18.51
2023-04-10T13:09:27.781Z,18.19
2023-04-10T13:12:31.178Z,18.37
2023-04-10T13:15:35.411Z,18.31
2023-04-10T13:18:38.754Z,18.24
2023-04-10T13:21:54.768Z,18.49
2023-04-10T13:24:57.893Z,18.81
2023-04-10T13:28:01.484Z,18.76
2023-04-10T13:31:04.556Z,18.55
2023-04-10T13:34:07.544Z,18.48
2023-04-10T13:37:13.315Z,18.59
2023-04-10T13:40:16.320Z,18.59
2023-04-10T13:43:19.309Z,18.45
2023-04-10T13:46:22.296Z,18.25
2023-04-10T13:49:25.711Z,18.36
2023-04-10T13:52:30.093Z,17.99
2023-04-10T13:55:33.109Z,18.39
2023-04-10T13:58:36.675Z,17.70
2023-04-10T14:01:39.656Z,17.47
2023-04-10T14:04:42.708Z,17.92
2023-04-10T14:07:48.294Z,18.12
2023-04-10T14:10:51.515Z,18.00
2023-04-10T14:13:54.525Z,18.22
2023-04-10T14:16:57.744Z,17.80
2023-04-10T14:20:01.641Z,17.48
2023-04-10T14:23:06.633Z,17.41
2023-04-10T14:26:09.953Z,17.72
2023-04-10T14:29:14.764Z,17.36
2023-04-10T14:32:19.376Z,16.83
2023-04-10T14:35:22.466Z,16.86
2023-04-10T14:38:26.754Z,16.83
2023-04-10T14:41:29.772Z,17.31
2023-04-10T14:44:32.882Z,17.30
2023-04-10T14:47:36.511Z,17.71
2023-04-10T14:50:39.533Z,18.42
2023-04-10T14:53:45.693Z,18.17
2023-04-10T14:56:49.093Z,17.97
2023-04-10T14:59:52.068Z,17.96
2023-04-10T15:02:57.232Z,18.21
2023-04-10T15:06:01.020Z,18.22
2023-04-10T15:09:05.414Z,18.07
2023-04-10T15:12:08.799Z,18.17
2023-04-10T15:15:12.739Z,17.81
2023-04-10T15:18:15.934Z,18.00
2023-04-10T15:21:19.150Z,18.15
2023-04-10T15:24:23.501Z,18.16
2023-04-10T15:27:26.861Z,17.97
2023-04-10T15:30:29.958Z,17.96
2023-04-10T15:33:32.971Z,17.62
2023-04-10T15:36:36.361Z,17.71
2023-04-10T15:39:40.684Z,17.65
2023-04-10T15:42:46.121Z,17.47
2023-04-10T15:45:49.239Z,17.36
2023-04-10T15:48:52.511Z,17.37
2023-04-10T15:51:55.454Z,17.27
2023-04-10T15:54:59.753Z,17.30
2023-04-10T15:58:02.834Z,17.15
2023-04-10T16:01:07.966Z,17.03
2023-04-10T16:04:11.312Z,16.82
2023-04-10T16:07:14.318Z,16.78
2023-04-10T16:10:19.106Z,16.79
2023-04-10T16:13:22.130Z,16.97
2023-04-10T16:16:28.968Z,16.88
2023-04-10T16:19:32.312Z,16.79
2023-04-10T16:22:36.430Z,16.54
2023-04-10T16:25:43.552Z,16.56
2023-04-10T16:28:46.523Z,16.53
2023-04-10T16:31:49.734Z,16.49
2023-04-10T16:34:52.814Z,16.45
2023-04-10T16:37:56.152Z,16.48
2023-04-10T16:41:03.073Z,16.52
2023-04-10T16:44:06.152Z,16.38
2023-04-10T16:47:09.671Z,16.34
2023-04-10T16:50:13.221Z,16.29
2023-04-10T16:53:16.243Z,16.12
2023-04-10T16:56:21.121Z,16.08
2023-04-10T16:59:24.061Z,16.09
2023-04-10T17:02:28.224Z,16.03
2023-04-10T17:05:35.778Z,16.04
2023-04-10T17:08:38.735Z,15.90
2023-04-10T17:11:43.044Z,15.88
2023-04-10T17:14:46.121Z,15.84
2023-04-10T17:17:50.106Z,15.75
2023-04-10T17:20:53.180Z,15.76
2023-04-10T17:23:56.134Z,15.66
2023-04-10T17:27:02.110Z,15.67
2023-04-10T17:30:06.203Z,15.63
2023-04-10T17:33:09.312Z,15.55
2023-04-10T17:36:13.439Z,15.48
2023-04-10T17:39:16.696Z,15.42
2023-04-10T17:42:21.723Z,15.42
2023-04-10T17:45:24.645Z,15.34
2023-04-10T17:48:28.068Z,15.16
2023-04-10T17:51:39.334Z,15.12
2023-04-10T17:54:42.268Z,15.08
2023-04-10T17:57:47.082Z,15.01
2023-04-10T18:00:50.422Z,14.92
2023-04-10T18:04:05.345Z,14.96
2023-04-10T18:07:11.468Z,14.86
2023-04-10T18:10:14.486Z,14.75
2023-04-10T18:13:19.113Z,14.67
2023-04-10T18:16:22.325Z,14.62
2023-04-10T18:19:34.900Z,14.63
2023-04-10T18:22:38.017Z,14.59
2023-04-10T18:25:41.524Z,14.57
2023-04-10T18:28:49.103Z,14.55
2023-04-10T18:31:52.056Z,14.41
2023-04-10T18:34:55.004Z,14.41
2023-04-10T18:37:58.417Z,14.35
2023-04-10T18:41:01.485Z,14.33
2023-04-10T18:44:06.259Z,14.28
2023-04-10T18:47:11.050Z,14.15
2023-04-10T18:50:14.803Z,14.18
2023-04-10T18:53:17.741Z,14.19
2023-04-10T18:56:20.741Z,14.12
2023-04-10T18:59:25.034Z,14.10
2023-04-10T19:02:29.229Z,14.02
2023-04-10T19:05:33.334Z,14.04
2023-04-10T19:08:37.517Z,13.98
2023-04-10T19:11:40.850Z,13.93
2023-04-10T19:14:45.249Z,13.84
2023-04-10T19:17:48.570Z,13.80
2023-04-10T19:20:52.965Z,13.76
2023-04-10T19:23:56.842Z,13.71
2023-04-10T19:27:04.522Z,13.78
2023-04-10T19:30:10.545Z,13.75
2023-04-10T19:33:13.537Z,13.65
2023-04-10T19:36:16.761Z,13.58
2023-04-10T19:39:20.414Z,13.56
2023-04-10T19:42:23.427Z,13.57
2023-04-10T19:45:29.281Z,13.52
2023-04-10T19:48:32.934Z,13.53
2023-04-10T19:51:40.247Z,13.41
2023-04-10T19:54:47.235Z,13.33
2023-04-10T19:57:50.908Z,13.36
2023-04-10T20:00:56.724Z,13.35
2023-04-10T20:03:59.850Z,13.32
2023-04-10T20:07:02.971Z,13.26
2023-04-10T20:10:07.214Z,13.24
2023-04-10T20:13:10.331Z,13.19
2023-04-10T20:16:14.637Z,13.15
2023-04-10T20:19:17.774Z,13.14
2023-04-10T20:22:20.962Z,13.10
2023-04-10T20:25:23.917Z,13.12
2023-04-10T20:28:26.872Z,13.09
2023-04-10T20:31:33.341Z,13.02
2023-04-10T20:34:40.768Z,13.03
2023-04-10T20:37:43.775Z,12.97
2023-04-10T20:40:47.369Z,12.97
2023-04-10T20:43:50.504Z,12.95
2023-04-10T20:46:54.868Z,12.95
2023-04-10T20:49:57.910Z,12.93
2023-04-10T20:53:00.931Z,12.99
2023-04-10T20:56:06.217Z,12.96
2023-04-10T20:59:09.432Z,12.99
2023-04-10T21:02:14.626Z,12.99
2023-04-10T21:05:17.812Z,12.96
2023-04-10T21:08:20.732Z,12.97
2023-04-10T21:11:23.752Z,12.96
2023-04-10T21:14:27.420Z,12.95
2023-04-10T21:17:32.261Z,12.89
2023-04-10T21:20:35.923Z,12.85
2023-04-10T21:23:38.898Z,12.82
2023-04-10T21:26:41.955Z,12.88
2023-04-10T21:29:44.963Z,12.86
2023-04-10T21:32:49.322Z,12.85
2023-04-10T21:35:52.295Z,12.90
2023-04-10T21:38:55.786Z,12.84
2023-04-10T21:41:59.019Z,12.81
2023-04-10T21:45:01.977Z,12.75
2023-04-10T21:48:07.107Z,12.73
2023-04-10T21:51:10.610Z,12.71
2023-04-10T21:54:13.585Z,12.68
2023-04-10T21:57:16.562Z,12.64
2023-04-10T22:00:21.941Z,12.54
2023-04-10T22:03:27.355Z,12.51
2023-04-10T22:06:31.719Z,12.52
2023-04-10T22:09:34.742Z,12.53
2023-04-10T22:12:37.800Z,12.45
2023-04-10T22:15:40.812Z,12.45
2023-04-10T22:18:45.069Z,12.37
2023-04-10T22:21:48.038Z,12.34
2023-04-10T22:24:51.177Z,12.36
2023-04-10T22:27:54.149Z,12.39
2023-04-10T22:30:57.654Z,12.38
2023-04-10T22:34:02.029Z,12.33
2023-04-10T22:37:05.227Z,12.34
2023-04-10T22:40:10.060Z,12.28
2023-04-10T22:43:13.164Z,12.24
2023-04-10T22:46:16.328Z,12.26
2023-04-10T22:49:20.730Z,12.22
2023-04-10T22:52:23.655Z,12.20
2023-04-10T22:55:26.812Z,12.19
2023-04-10T22:58:29.926Z,12.13
2023-04-10T23:01:32.993Z,12.10
2023-04-10T23:04:37.588Z,12.09
2023-04-10T23:07:40.832Z,12.06
2023-04-10T23:10:43.856Z,12.04
2023-04-10T23:13:46.813Z,12.03
2023-04-10T23:16:50.030Z,12.02
2023-04-10T23:19:55.190Z,12.00
2023-04-10T23:22:59.731Z,11.98
2023-04-10T23:26:02.756Z,11.94
2023-04-10T23:29:05.820Z,11.90
2023-04-10T23:32:08.997Z,11.90
2023-04-10T23:35:13.300Z,11.88
2023-04-10T23:38:16.390Z,11.85
2023-04-10T23:41:20.259Z,11.84
2023-04-10T23:44:23.407Z,11.84
2023-04-10T23:47:26.392Z,11.83
2023-04-10T23:50:31.010Z,11.81
2023-04-10T23:53:34.360Z,11.79
2023-04-10T23:56:37.504Z,11.72
2023-04-10T23:59:40.939Z,11.69
